Terminal Aerodrome Forecast
Issued by NWS Mt. Holly, NJ

Home | Current Version | Previous Version | Text Only | Print | Product List | Glossary On
Versions: 1 2 3 4 5 6 7 8 9 10 11 12 13 14 15 16
722
FTUS41 KPHI 062325
TAFILG
TAF
KILG 062325Z 0700/0724 VRB03KT P6SM BKN250
     FM071300 01005KT P6SM SKC
     FM072000 05008KT P6SM SCT200=

USA.gov is the U.S. government's official web portal to all federal, state and local government web resources and services.